Kenney, Texas
Current Conditions -  °F | °C
As of 4:55 PM on Tuesday 21 Oct 2014 (Local Time) from K11R Reporting Station
Clear Clear  
Wind Chill: 83°   Ceiling: Unl
Heat Index: 83°   Visibility: 10mi
Dew Point: 54°   Wind: 5mph
Humidity: 37%   Direction: 90°E
Pressure: 29.99"   Gusts: NA
Location:  30.05°N, 96.33°W
Report Text: K11R 212155Z AUTO 09004KT 10SM CLR 28/12 A2999 RMK AO2 T02830122
Loading
Personal Weather Stations






























Interactive Weather Map
Tropical Storm Tracking
New forecast layout! Learn more

10-Day Weather Forecast

Advertisements
Track Severe Weather on mobile